sensor_id;sensor_type;location;lat;lon;timestamp;temperature;humidity
54824;DHT22;40724;53.196;5.980;2023-06-22T01:10:08;22.30;91.70
54824;DHT22;40724;53.196;5.980;2023-06-22T01:12:40;21.40;93.00
54824;DHT22;40724;53.196;5.980;2023-06-22T01:15:14;21.30;93.00
54824;DHT22;40724;53.196;5.980;2023-06-22T01:17:43;21.20;93.00
54824;DHT22;40724;53.196;5.980;2023-06-22T01:20:10;21.20;93.10
54824;DHT22;40724;53.196;5.980;2023-06-22T01:23:07;21.20;93.10
54824;DHT22;40724;53.196;5.980;2023-06-22T01:30:51;21.20;93.30
54824;DHT22;40724;53.196;5.980;2023-06-22T01:33:29;21.20;93.30
54824;DHT22;40724;53.196;5.980;2023-06-22T01:35:57;21.20;93.40
54824;DHT22;40724;53.196;5.980;2023-06-22T01:38:23;21.20;93.40
54824;DHT22;40724;53.196;5.980;2023-06-22T01:40:50;21.10;93.40
54824;DHT22;40724;53.196;5.980;2023-06-22T01:43:16;21.10;93.50
54824;DHT22;40724;53.196;5.980;2023-06-22T01:45:42;21.10;93.50
54824;DHT22;40724;53.196;5.980;2023-06-22T01:48:08;21.10;93.50
54824;DHT22;40724;53.196;5.980;2023-06-22T01:50:34;21.10;93.60
54824;DHT22;40724;53.196;5.980;2023-06-22T01:53:00;21.10;93.60
54824;DHT22;40724;53.196;5.980;2023-06-22T01:55:25;21.00;93.60
54824;DHT22;40724;53.196;5.980;2023-06-22T01:57:51;21.00;93.60
54824;DHT22;40724;53.196;5.980;2023-06-22T02:00:20;21.00;93.60
54824;DHT22;40724;53.196;5.980;2023-06-22T03:16:22;21.00;93.60
54824;DHT22;40724;53.196;5.980;2023-06-22T03:18:48;20.40;93.80
54824;DHT22;40724;53.196;5.980;2023-06-22T03:21:14;20.30;93.80
54824;DHT22;40724;53.196;5.980;2023-06-22T03:23:41;20.30;93.70
54824;DHT22;40724;53.196;5.980;2023-06-22T07:33:33;20.30;93.70
54824;DHT22;40724;53.196;5.980;2023-06-22T07:35:59;21.40;95.50
54824;DHT22;40724;53.196;5.980;2023-06-22T07:38:25;21.40;95.20
54824;DHT22;40724;53.196;5.980;2023-06-22T07:40:51;21.40;95.30
54824;DHT22;40724;53.196;5.980;2023-06-22T07:43:19;21.50;95.30
54824;DHT22;40724;53.196;5.980;2023-06-22T07:45:50;21.50;95.30
54824;DHT22;40724;53.196;5.980;2023-06-22T07:48:22;21.50;95.30
54824;DHT22;40724;53.196;5.980;2023-06-22T09:28:49;21.60;95.30
54824;DHT22;40724;53.196;5.980;2023-06-22T09:31:15;24.40;94.50
54824;DHT22;40724;53.196;5.980;2023-06-22T10:25:04;24.40;94.50
54824;DHT22;40724;53.196;5.980;2023-06-22T10:27:30;26.10;92.50
54824;DHT22;40724;53.196;5.980;2023-06-22T10:29:57;26.10;92.30
54824;DHT22;40724;53.196;5.980;2023-06-22T10:32:22;26.20;92.20
54824;DHT22;40724;53.196;5.980;2023-06-22T10:34:48;26.30;92.10
54824;DHT22;40724;53.196;5.980;2023-06-22T10:37:14;26.30;92.00
54824;DHT22;40724;53.196;5.980;2023-06-22T10:39:40;26.40;91.90
54824;DHT22;40724;53.196;5.980;2023-06-22T10:42:06;26.50;91.80
54824;DHT22;40724;53.196;5.980;2023-06-22T10:44:31;26.60;91.90
54824;DHT22;40724;53.196;5.980;2023-06-22T10:46:57;26.60;91.60
54824;DHT22;40724;53.196;5.980;2023-06-22T10:49:23;26.70;91.50
54824;DHT22;40724;53.196;5.980;2023-06-22T10:51:49;26.80;91.50
54824;DHT22;40724;53.196;5.980;2023-06-22T10:54:14;26.80;91.30
54824;DHT22;40724;53.196;5.980;2023-06-22T10:56:43;26.90;91.20
54824;DHT22;40724;53.196;5.980;2023-06-22T10:59:09;27.00;91.00
54824;DHT22;40724;53.196;5.980;2023-06-22T11:01:35;27.00;90.80
54824;DHT22;40724;53.196;5.980;2023-06-22T11:04:02;27.10;91.00
54824;DHT22;40724;53.196;5.980;2023-06-22T11:06:28;27.20;90.70
54824;DHT22;40724;53.196;5.980;2023-06-22T11:08:54;27.20;90.50
54824;DHT22;40724;53.196;5.980;2023-06-22T11:11:20;27.30;90.50
54824;DHT22;40724;53.196;5.980;2023-06-22T11:13:45;27.30;90.30
54824;DHT22;40724;53.196;5.980;2023-06-22T11:16:11;27.40;90.20
54824;DHT22;40724;53.196;5.980;2023-06-22T11:18:37;27.40;90.10
54824;DHT22;40724;53.196;5.980;2023-06-22T11:21:03;27.50;90.00
54824;DHT22;40724;53.196;5.980;2023-06-22T11:23:29;27.50;89.90
54824;DHT22;40724;53.196;5.980;2023-06-22T11:25:55;27.60;89.80
54824;DHT22;40724;53.196;5.980;2023-06-22T11:28:20;27.60;89.50
54824;DHT22;40724;53.196;5.980;2023-06-22T11:30:46;27.70;89.30
54824;DHT22;40724;53.196;5.980;2023-06-22T11:33:12;27.70;89.70
54824;DHT22;40724;53.196;5.980;2023-06-22T11:35:38;27.70;89.00
54824;DHT22;40724;53.196;5.980;2023-06-22T11:38:04;27.80;89.00
54824;DHT22;40724;53.196;5.980;2023-06-22T11:40:30;27.80;89.00
54824;DHT22;40724;53.196;5.980;2023-06-22T11:42:56;27.90;88.90
54824;DHT22;40724;53.196;5.980;2023-06-22T11:45:22;27.90;88.80
54824;DHT22;40724;53.196;5.980;2023-06-22T11:47:48;28.00;88.80
54824;DHT22;40724;53.196;5.980;2023-06-22T11:50:14;28.00;88.70
54824;DHT22;40724;53.196;5.980;2023-06-22T11:52:40;28.00;88.50
54824;DHT22;40724;53.196;5.980;2023-06-22T11:55:06;28.10;88.30
54824;DHT22;40724;53.196;5.980;2023-06-22T11:57:35;28.00;88.00
54824;DHT22;40724;53.196;5.980;2023-06-22T12:00:01;28.10;87.90
54824;DHT22;40724;53.196;5.980;2023-06-22T12:02:32;28.10;87.80
54824;DHT22;40724;53.196;5.980;2023-06-22T12:04:57;28.20;87.80
54824;DHT22;40724;53.196;5.980;2023-06-22T12:07:23;28.10;87.70
54824;DHT22;40724;53.196;5.980;2023-06-22T12:09:49;28.10;87.60
54824;DHT22;40724;53.196;5.980;2023-06-22T12:12:15;28.20;87.60
54824;DHT22;40724;53.196;5.980;2023-06-22T12:14:41;28.10;87.30
54824;DHT22;40724;53.196;5.980;2023-06-22T12:17:06;28.10;87.20
54824;DHT22;40724;53.196;5.980;2023-06-22T12:19:32;28.10;87.00
54824;DHT22;40724;53.196;5.980;2023-06-22T12:21:58;28.10;86.90
54824;DHT22;40724;53.196;5.980;2023-06-22T12:24:24;28.10;86.70
54824;DHT22;40724;53.196;5.980;2023-06-22T12:26:49;28.10;86.10
54824;DHT22;40724;53.196;5.980;2023-06-22T12:29:15;28.00;86.00
54824;DHT22;40724;53.196;5.980;2023-06-22T12:31:41;28.00;86.30
54824;DHT22;40724;53.196;5.980;2023-06-22T12:34:07;28.00;86.60
54824;DHT22;40724;53.196;5.980;2023-06-22T12:36:32;27.90;85.30
54824;DHT22;40724;53.196;5.980;2023-06-22T12:38:58;27.90;85.30
54824;DHT22;40724;53.196;5.980;2023-06-22T12:41:24;27.90;85.10
54824;DHT22;40724;53.196;5.980;2023-06-22T12:43:50;27.80;84.60
54824;DHT22;40724;53.196;5.980;2023-06-22T12:46:16;27.80;84.80
54824;DHT22;40724;53.196;5.980;2023-06-22T12:48:41;27.80;84.50
54824;DHT22;40724;53.196;5.980;2023-06-22T12:51:09;27.70;84.20
54824;DHT22;40724;53.196;5.980;2023-06-22T12:53:35;27.70;84.20
54824;DHT22;40724;53.196;5.980;2023-06-22T12:56:01;27.70;83.90
54824;DHT22;40724;53.196;5.980;2023-06-22T12:58:27;27.60;83.60
54824;DHT22;40724;53.196;5.980;2023-06-22T13:00:53;27.60;83.40
54824;DHT22;40724;53.196;5.980;2023-06-22T13:03:18;27.60;83.30
54824;DHT22;40724;53.196;5.980;2023-06-22T13:05:44;27.60;83.00
54824;DHT22;40724;53.196;5.980;2023-06-22T13:08:10;27.50;82.70
54824;DHT22;40724;53.196;5.980;2023-06-22T13:10:36;27.50;82.50
54824;DHT22;40724;53.196;5.980;2023-06-22T13:13:02;27.40;82.30
54824;DHT22;40724;53.196;5.980;2023-06-22T13:15:28;27.40;82.20
54824;DHT22;40724;53.196;5.980;2023-06-22T13:17:55;27.40;82.00
54824;DHT22;40724;53.196;5.980;2023-06-22T13:20:21;27.40;81.80
54824;DHT22;40724;53.196;5.980;2023-06-22T13:22:46;27.30;81.60
54824;DHT22;40724;53.196;5.980;2023-06-22T13:25:12;27.30;81.60
54824;DHT22;40724;53.196;5.980;2023-06-22T13:27:40;27.20;81.30
54824;DHT22;40724;53.196;5.980;2023-06-22T13:30:06;27.20;81.20
54824;DHT22;40724;53.196;5.980;2023-06-22T13:32:32;27.20;81.10
54824;DHT22;40724;53.196;5.980;2023-06-22T13:34:58;27.10;80.90
54824;DHT22;40724;53.196;5.980;2023-06-22T13:37:25;27.10;81.00
54824;DHT22;40724;53.196;5.980;2023-06-22T13:39:51;27.00;80.90
54824;DHT22;40724;53.196;5.980;2023-06-22T13:42:16;27.00;80.80
54824;DHT22;40724;53.196;5.980;2023-06-22T13:44:42;27.00;80.80
54824;DHT22;40724;53.196;5.980;2023-06-22T13:47:08;26.90;80.80
54824;DHT22;40724;53.196;5.980;2023-06-22T13:49:34;26.90;80.60
54824;DHT22;40724;53.196;5.980;2023-06-22T13:52:00;26.90;80.50
54824;DHT22;40724;53.196;5.980;2023-06-22T13:54:26;26.80;80.30
54824;DHT22;40724;53.196;5.980;2023-06-22T13:56:52;26.70;80.10
54824;DHT22;40724;53.196;5.980;2023-06-22T13:59:18;26.70;80.00
54824;DHT22;40724;53.196;5.980;2023-06-22T14:01:44;26.70;79.80
54824;DHT22;40724;53.196;5.980;2023-06-22T14:04:10;26.60;79.70
54824;DHT22;40724;53.196;5.980;2023-06-22T14:06:35;26.60;79.60
54824;DHT22;40724;53.196;5.980;2023-06-22T14:09:01;26.50;79.50
54824;DHT22;40724;53.196;5.980;2023-06-22T14:11:27;26.40;79.20
54824;DHT22;40724;53.196;5.980;2023-06-22T14:13:53;26.30;78.30
54824;DHT22;40724;53.196;5.980;2023-06-22T14:23:38;26.20;77.50
54824;DHT22;40724;53.196;5.980;2023-06-22T14:26:03;25.50;76.40
54824;DHT22;40724;53.196;5.980;2023-06-22T14:50:25;25.30;76.20
54824;DHT22;40724;53.196;5.980;2023-06-22T14:52:51;24.50;76.60
54824;DHT22;40724;53.196;5.980;2023-06-22T14:55:16;24.40;76.60
54824;DHT22;40724;53.196;5.980;2023-06-22T14:57:42;24.40;77.40
54824;DHT22;40724;53.196;5.980;2023-06-22T15:00:08;24.30;76.90
54824;DHT22;40724;53.196;5.980;2023-06-22T15:02:34;24.20;77.20
54824;DHT22;40724;53.196;5.980;2023-06-22T15:05:00;24.20;77.50
54824;DHT22;40724;53.196;5.980;2023-06-22T15:07:26;24.20;77.70
54824;DHT22;40724;53.196;5.980;2023-06-22T15:09:52;24.10;77.90
54824;DHT22;40724;53.196;5.980;2023-06-22T15:12:17;24.10;78.10
54824;DHT22;40724;53.196;5.980;2023-06-22T15:14:43;24.00;78.20
54824;DHT22;40724;53.196;5.980;2023-06-22T15:17:09;24.00;78.30
54824;DHT22;40724;53.196;5.980;2023-06-22T15:19:36;24.00;78.30
54824;DHT22;40724;53.196;5.980;2023-06-22T15:22:07;24.00;78.30
54824;DHT22;40724;53.196;5.980;2023-06-22T15:24:34;23.90;78.40
54824;DHT22;40724;53.196;5.980;2023-06-22T15:26:59;23.90;78.30
54824;DHT22;40724;53.196;5.980;2023-06-22T15:29:26;23.80;78.30
54824;DHT22;40724;53.196;5.980;2023-06-22T15:31:52;23.80;78.20
54824;DHT22;40724;53.196;5.980;2023-06-22T15:34:19;23.80;78.10
54824;DHT22;40724;53.196;5.980;2023-06-22T15:36:45;23.80;78.00
54824;DHT22;40724;53.196;5.980;2023-06-22T15:39:11;23.80;78.00
54824;DHT22;40724;53.196;5.980;2023-06-22T15:41:40;23.70;78.10
54824;DHT22;40724;53.196;5.980;2023-06-22T15:44:07;23.70;77.90
54824;DHT22;40724;53.196;5.980;2023-06-22T15:46:33;23.70;77.80
54824;DHT22;40724;53.196;5.980;2023-06-22T16:03:38;23.60;77.60
54824;DHT22;40724;53.196;5.980;2023-06-22T16:06:04;23.30;80.10
54824;DHT22;40724;53.196;5.980;2023-06-22T16:08:30;23.30;79.70
54824;DHT22;40724;53.196;5.980;2023-06-22T16:30:27;23.30;79.70
54824;DHT22;40724;53.196;5.980;2023-06-22T16:32:54;23.00;81.40
54824;DHT22;40724;53.196;5.980;2023-06-22T16:57:26;23.00;81.80
54824;DHT22;40724;53.196;5.980;2023-06-22T16:59:55;22.60;84.40
54824;DHT22;40724;53.196;5.980;2023-06-22T17:02:23;22.50;84.70
54824;DHT22;40724;53.196;5.980;2023-06-22T22:11:03;22.50;84.80
